sensor_id;sensor_type;location;lat;lon;timestamp;temperature;humidity
52267;DHT22;38223;50.940;4.034;2023-06-14T00:02:01;22.90;73.20
52267;DHT22;38223;50.940;4.034;2023-06-14T00:04:32;22.70;73.80
52267;DHT22;38223;50.940;4.034;2023-06-14T00:07:09;22.70;74.50
52267;DHT22;38223;50.940;4.034;2023-06-14T00:09:38;22.60;75.30
52267;DHT22;38223;50.940;4.034;2023-06-14T00:12:09;22.50;75.80
52267;DHT22;38223;50.940;4.034;2023-06-14T00:14:42;22.50;76.40
52267;DHT22;38223;50.940;4.034;2023-06-14T00:17:12;22.50;76.80
52267;DHT22;38223;50.940;4.034;2023-06-14T00:19:46;22.40;77.10
52267;DHT22;38223;50.940;4.034;2023-06-14T00:22:16;22.40;77.60
52267;DHT22;38223;50.940;4.034;2023-06-14T00:24:47;22.50;77.90
52267;DHT22;38223;50.940;4.034;2023-06-14T00:27:17;22.30;78.30
52267;DHT22;38223;50.940;4.034;2023-06-14T00:29:48;22.30;79.00
52267;DHT22;38223;50.940;4.034;2023-06-14T00:32:22;22.30;79.20
52267;DHT22;38223;50.940;4.034;2023-06-14T00:34:51;22.20;79.90
52267;DHT22;38223;50.940;4.034;2023-06-14T00:37:26;22.10;80.80
52267;DHT22;38223;50.940;4.034;2023-06-14T00:39:59;22.00;81.60
52267;DHT22;38223;50.940;4.034;2023-06-14T00:42:33;21.80;82.90
52267;DHT22;38223;50.940;4.034;2023-06-14T00:45:02;21.80;83.20
52267;DHT22;38223;50.940;4.034;2023-06-14T00:47:36;21.80;83.60
52267;DHT22;38223;50.940;4.034;2023-06-14T00:50:08;21.80;83.70
52267;DHT22;38223;50.940;4.034;2023-06-14T00:52:38;21.70;84.70
52267;DHT22;38223;50.940;4.034;2023-06-14T00:55:10;21.70;84.50
52267;DHT22;38223;50.940;4.034;2023-06-14T00:57:41;21.50;85.40
52267;DHT22;38223;50.940;4.034;2023-06-14T01:00:13;21.40;86.00
52267;DHT22;38223;50.940;4.034;2023-06-14T01:02:44;21.50;86.30
52267;DHT22;38223;50.940;4.034;2023-06-14T01:05:13;21.40;86.80
52267;DHT22;38223;50.940;4.034;2023-06-14T01:11:05;21.40;87.20
52267;DHT22;38223;50.940;4.034;2023-06-14T01:13:37;21.40;86.90
52267;DHT22;38223;50.940;4.034;2023-06-14T01:16:11;21.30;87.10
52267;DHT22;38223;50.940;4.034;2023-06-14T01:18:41;21.30;87.80
52267;DHT22;38223;50.940;4.034;2023-06-14T01:21:24;21.20;88.20
52267;DHT22;38223;50.940;4.034;2023-06-14T01:23:54;21.20;88.60
52267;DHT22;38223;50.940;4.034;2023-06-14T01:26:30;21.30;88.40
52267;DHT22;38223;50.940;4.034;2023-06-14T01:29:04;21.30;87.80
52267;DHT22;38223;50.940;4.034;2023-06-14T01:31:37;21.20;87.40
52267;DHT22;38223;50.940;4.034;2023-06-14T01:34:09;21.20;87.20
52267;DHT22;38223;50.940;4.034;2023-06-14T01:36:41;21.20;87.20
52267;DHT22;38223;50.940;4.034;2023-06-14T01:39:16;21.20;87.10
52267;DHT22;38223;50.940;4.034;2023-06-14T01:41:46;21.10;86.50
52267;DHT22;38223;50.940;4.034;2023-06-14T01:44:19;21.10;86.20
52267;DHT22;38223;50.940;4.034;2023-06-14T01:46:51;21.00;85.90
52267;DHT22;38223;50.940;4.034;2023-06-14T01:49:22;21.00;86.90
52267;DHT22;38223;50.940;4.034;2023-06-14T01:51:54;21.00;86.20
52267;DHT22;38223;50.940;4.034;2023-06-14T01:54:27;20.90;86.20
52267;DHT22;38223;50.940;4.034;2023-06-14T01:57:00;21.10;85.30
52267;DHT22;38223;50.940;4.034;2023-06-14T01:59:29;21.10;85.10
52267;DHT22;38223;50.940;4.034;2023-06-14T02:02:02;21.10;84.80
52267;DHT22;38223;50.940;4.034;2023-06-14T02:04:34;21.10;84.60
52267;DHT22;38223;50.940;4.034;2023-06-14T02:07:05;20.90;84.70
52267;DHT22;38223;50.940;4.034;2023-06-14T02:09:37;20.80;85.10
52267;DHT22;38223;50.940;4.034;2023-06-14T02:12:08;20.90;85.30
52267;DHT22;38223;50.940;4.034;2023-06-14T02:14:37;21.00;84.90
52267;DHT22;38223;50.940;4.034;2023-06-14T02:17:10;21.00;84.90
52267;DHT22;38223;50.940;4.034;2023-06-14T02:19:42;20.90;84.90
52267;DHT22;38223;50.940;4.034;2023-06-14T02:22:11;20.90;84.60
52267;DHT22;38223;50.940;4.034;2023-06-14T02:24:44;20.90;84.50
52267;DHT22;38223;50.940;4.034;2023-06-14T02:27:15;20.70;85.00
52267;DHT22;38223;50.940;4.034;2023-06-14T02:29:48;20.60;85.60
52267;DHT22;38223;50.940;4.034;2023-06-14T02:32:21;20.50;85.60
52267;DHT22;38223;50.940;4.034;2023-06-14T02:34:59;20.50;85.80
52267;DHT22;38223;50.940;4.034;2023-06-14T02:37:37;20.60;85.90
52267;DHT22;38223;50.940;4.034;2023-06-14T02:40:07;20.50;85.70
52267;DHT22;38223;50.940;4.034;2023-06-14T02:42:36;20.60;85.40
52267;DHT22;38223;50.940;4.034;2023-06-14T02:45:06;20.70;85.80
52267;DHT22;38223;50.940;4.034;2023-06-14T02:47:38;20.60;84.80
52267;DHT22;38223;50.940;4.034;2023-06-14T02:50:16;20.50;85.20
52267;DHT22;38223;50.940;4.034;2023-06-14T02:52:50;20.40;85.30
52267;DHT22;38223;50.940;4.034;2023-06-14T02:55:24;20.30;86.00
52267;DHT22;38223;50.940;4.034;2023-06-14T02:57:52;20.40;85.70
52267;DHT22;38223;50.940;4.034;2023-06-14T03:00:25;20.40;84.90
52267;DHT22;38223;50.940;4.034;2023-06-14T03:02:58;20.40;84.50
52267;DHT22;38223;50.940;4.034;2023-06-14T03:05:31;20.30;85.40
52267;DHT22;38223;50.940;4.034;2023-06-14T03:08:02;20.20;85.60
52267;DHT22;38223;50.940;4.034;2023-06-14T03:10:34;20.20;85.50
52267;DHT22;38223;50.940;4.034;2023-06-14T03:13:04;20.20;85.30
52267;DHT22;38223;50.940;4.034;2023-06-14T03:15:37;20.20;85.50
52267;DHT22;38223;50.940;4.034;2023-06-14T03:18:09;20.20;84.80
52267;DHT22;38223;50.940;4.034;2023-06-14T03:20:43;20.00;85.40
52267;DHT22;38223;50.940;4.034;2023-06-14T03:23:15;20.00;85.30
52267;DHT22;38223;50.940;4.034;2023-06-14T03:25:45;20.00;85.20
52267;DHT22;38223;50.940;4.034;2023-06-14T03:28:21;20.10;85.00
52267;DHT22;38223;50.940;4.034;2023-06-14T03:30:51;20.20;84.60
52267;DHT22;38223;50.940;4.034;2023-06-14T03:33:26;20.20;83.90
52267;DHT22;38223;50.940;4.034;2023-06-14T03:35:56;20.20;84.40
52267;DHT22;38223;50.940;4.034;2023-06-14T03:38:30;20.20;84.10
52267;DHT22;38223;50.940;4.034;2023-06-14T03:41:00;20.20;84.10
52267;DHT22;38223;50.940;4.034;2023-06-14T03:43:36;20.30;83.80
52267;DHT22;38223;50.940;4.034;2023-06-14T03:46:05;20.30;83.10
52267;DHT22;38223;50.940;4.034;2023-06-14T03:48:35;20.10;83.60
52267;DHT22;38223;50.940;4.034;2023-06-14T03:51:06;20.00;84.40
52267;DHT22;38223;50.940;4.034;2023-06-14T03:53:38;19.90;84.80
52267;DHT22;38223;50.940;4.034;2023-06-14T03:56:10;20.00;84.60
52267;DHT22;38223;50.940;4.034;2023-06-14T03:58:41;20.10;84.10
52267;DHT22;38223;50.940;4.034;2023-06-14T04:01:17;20.10;83.80
52267;DHT22;38223;50.940;4.034;2023-06-14T04:03:46;20.30;83.20
52267;DHT22;38223;50.940;4.034;2023-06-14T04:06:21;20.30;83.00
52267;DHT22;38223;50.940;4.034;2023-06-14T04:08:51;20.20;82.90
52267;DHT22;38223;50.940;4.034;2023-06-14T04:11:27;20.00;83.50
52267;DHT22;38223;50.940;4.034;2023-06-14T04:13:56;20.00;83.60
52267;DHT22;38223;50.940;4.034;2023-06-14T04:16:30;19.80;83.90
52267;DHT22;38223;50.940;4.034;2023-06-14T04:18:59;19.70;84.70
52267;DHT22;38223;50.940;4.034;2023-06-14T04:21:31;19.60;84.90
52267;DHT22;38223;50.940;4.034;2023-06-14T04:24:04;19.60;84.90
52267;DHT22;38223;50.940;4.034;2023-06-14T04:26:38;19.50;85.60
52267;DHT22;38223;50.940;4.034;2023-06-14T04:29:08;19.40;85.20
52267;DHT22;38223;50.940;4.034;2023-06-14T04:31:39;19.50;85.00
52267;DHT22;38223;50.940;4.034;2023-06-14T04:34:11;19.60;84.40
52267;DHT22;38223;50.940;4.034;2023-06-14T04:36:46;19.70;84.20
52267;DHT22;38223;50.940;4.034;2023-06-14T04:39:20;19.80;83.10
52267;DHT22;38223;50.940;4.034;2023-06-14T04:41:53;19.90;82.80
52267;DHT22;38223;50.940;4.034;2023-06-14T04:44:25;19.90;82.70
52267;DHT22;38223;50.940;4.034;2023-06-14T04:46:54;20.00;82.20
52267;DHT22;38223;50.940;4.034;2023-06-14T04:49:30;20.00;81.90
52267;DHT22;38223;50.940;4.034;2023-06-14T04:51:59;20.20;81.60
52267;DHT22;38223;50.940;4.034;2023-06-14T04:54:35;20.00;82.00
52267;DHT22;38223;50.940;4.034;2023-06-14T04:57:10;20.00;82.10
52267;DHT22;38223;50.940;4.034;2023-06-14T04:59:43;19.90;82.10
52267;DHT22;38223;50.940;4.034;2023-06-14T05:02:17;19.80;82.40
52267;DHT22;38223;50.940;4.034;2023-06-14T05:04:51;20.30;84.20
52267;DHT22;38223;50.940;4.034;2023-06-14T05:07:20;20.70;84.40
52267;DHT22;38223;50.940;4.034;2023-06-14T05:09:54;20.90;84.90
52267;DHT22;38223;50.940;4.034;2023-06-14T05:12:23;21.20;80.70
52267;DHT22;38223;50.940;4.034;2023-06-14T05:14:57;21.00;81.80
52267;DHT22;38223;50.940;4.034;2023-06-14T05:17:26;21.10;84.50
52267;DHT22;38223;50.940;4.034;2023-06-14T05:19:59;21.10;82.50
52267;DHT22;38223;50.940;4.034;2023-06-14T05:22:30;21.10;81.60
52267;DHT22;38223;50.940;4.034;2023-06-14T05:25:01;21.30;81.50
52267;DHT22;38223;50.940;4.034;2023-06-14T05:27:32;21.60;78.80
52267;DHT22;38223;50.940;4.034;2023-06-14T05:30:07;21.70;77.20
52267;DHT22;38223;50.940;4.034;2023-06-14T05:32:40;21.70;79.20
52267;DHT22;38223;50.940;4.034;2023-06-14T05:35:13;21.60;77.50
52267;DHT22;38223;50.940;4.034;2023-06-14T05:37:42;21.80;75.70
52267;DHT22;38223;50.940;4.034;2023-06-14T05:40:12;21.80;78.30
52267;DHT22;38223;50.940;4.034;2023-06-14T05:42:41;21.80;76.20
52267;DHT22;38223;50.940;4.034;2023-06-14T05:45:12;21.60;77.60
52267;DHT22;38223;50.940;4.034;2023-06-14T05:47:45;21.60;77.10
52267;DHT22;38223;50.940;4.034;2023-06-14T05:50:20;21.60;77.60
52267;DHT22;38223;50.940;4.034;2023-06-14T05:52:51;21.60;77.40
52267;DHT22;38223;50.940;4.034;2023-06-14T05:55:21;21.50;77.30
52267;DHT22;38223;50.940;4.034;2023-06-14T05:57:52;21.60;77.30
52267;DHT22;38223;50.940;4.034;2023-06-14T06:00:28;21.70;78.40
52267;DHT22;38223;50.940;4.034;2023-06-14T06:05:44;21.50;77.50
52267;DHT22;38223;50.940;4.034;2023-06-14T06:08:14;21.60;77.20
52267;DHT22;38223;50.940;4.034;2023-06-14T06:10:44;21.50;76.80
52267;DHT22;38223;50.940;4.034;2023-06-14T06:13:18;21.30;78.30
52267;DHT22;38223;50.940;4.034;2023-06-14T06:15:50;21.40;78.40
52267;DHT22;38223;50.940;4.034;2023-06-14T06:18:25;21.30;78.80
52267;DHT22;38223;50.940;4.034;2023-06-14T06:21:00;21.20;78.70
52267;DHT22;38223;50.940;4.034;2023-06-14T06:23:29;21.30;78.70
52267;DHT22;38223;50.940;4.034;2023-06-14T06:26:04;21.20;78.90
52267;DHT22;38223;50.940;4.034;2023-06-14T06:28:39;21.20;79.30
52267;DHT22;38223;50.940;4.034;2023-06-14T06:31:16;21.30;79.10
52267;DHT22;38223;50.940;4.034;2023-06-14T06:33:50;21.30;78.90
52267;DHT22;38223;50.940;4.034;2023-06-14T06:36:23;21.30;78.70
52267;DHT22;38223;50.940;4.034;2023-06-14T06:39:00;21.40;79.00
52267;DHT22;38223;50.940;4.034;2023-06-14T06:41:30;21.40;79.30
52267;DHT22;38223;50.940;4.034;2023-06-14T06:44:05;21.50;78.80
52267;DHT22;38223;50.940;4.034;2023-06-14T06:46:43;21.50;78.30
52267;DHT22;38223;50.940;4.034;2023-06-14T06:49:16;21.70;78.10
52267;DHT22;38223;50.940;4.034;2023-06-14T06:52:10;21.70;78.10
52267;DHT22;38223;50.940;4.034;2023-06-14T06:54:40;21.50;78.70
52267;DHT22;38223;50.940;4.034;2023-06-14T06:57:11;21.60;79.00
52267;DHT22;38223;50.940;4.034;2023-06-14T06:59:43;21.80;78.40
52267;DHT22;38223;50.940;4.034;2023-06-14T07:02:12;21.90;79.00
52267;DHT22;38223;50.940;4.034;2023-06-14T07:04:44;21.90;78.10
52267;DHT22;38223;50.940;4.034;2023-06-14T07:07:20;22.00;77.40
52267;DHT22;38223;50.940;4.034;2023-06-14T07:09:54;22.00;77.90
52267;DHT22;38223;50.940;4.034;2023-06-14T07:12:24;22.20;77.40
52267;DHT22;38223;50.940;4.034;2023-06-14T07:14:56;22.50;76.70
52267;DHT22;38223;50.940;4.034;2023-06-14T07:17:26;22.50;76.10
52267;DHT22;38223;50.940;4.034;2023-06-14T07:20:00;22.60;76.40
52267;DHT22;38223;50.940;4.034;2023-06-14T07:22:35;22.60;76.20
52267;DHT22;38223;50.940;4.034;2023-06-14T07:25:11;22.80;75.40
52267;DHT22;38223;50.940;4.034;2023-06-14T07:27:47;22.90;74.90
52267;DHT22;38223;50.940;4.034;2023-06-14T07:30:17;23.10;74.00
52267;DHT22;38223;50.940;4.034;2023-06-14T07:32:49;23.20;73.00
52267;DHT22;38223;50.940;4.034;2023-06-14T07:35:21;23.10;72.90
52267;DHT22;38223;50.940;4.034;2023-06-14T07:37:55;23.00;73.80
52267;DHT22;38223;50.940;4.034;2023-06-14T07:40:25;22.90;74.90
52267;DHT22;38223;50.940;4.034;2023-06-14T07:42:54;22.80;75.50
52267;DHT22;38223;50.940;4.034;2023-06-14T07:45:28;22.90;74.80
52267;DHT22;38223;50.940;4.034;2023-06-14T07:48:00;22.90;74.70
52267;DHT22;38223;50.940;4.034;2023-06-14T07:50:33;23.00;74.30
52267;DHT22;38223;50.940;4.034;2023-06-14T07:53:02;23.00;74.30
52267;DHT22;38223;50.940;4.034;2023-06-14T07:55:35;23.00;73.10
52267;DHT22;38223;50.940;4.034;2023-06-14T07:58:12;23.00;73.60
52267;DHT22;38223;50.940;4.034;2023-06-14T08:00:46;23.20;73.60
52267;DHT22;38223;50.940;4.034;2023-06-14T08:03:17;23.40;72.70
52267;DHT22;38223;50.940;4.034;2023-06-14T08:05:54;23.40;73.30
52267;DHT22;38223;50.940;4.034;2023-06-14T08:08:28;23.60;73.10
52267;DHT22;38223;50.940;4.034;2023-06-14T08:11:00;23.70;73.10
52267;DHT22;38223;50.940;4.034;2023-06-14T08:13:38;23.80;72.80
52267;DHT22;38223;50.940;4.034;2023-06-14T08:16:08;23.90;72.50
52267;DHT22;38223;50.940;4.034;2023-06-14T08:18:50;24.00;71.10
52267;DHT22;38223;50.940;4.034;2023-06-14T08:21:26;24.10;70.70
52267;DHT22;38223;50.940;4.034;2023-06-14T08:24:03;23.90;71.10
52267;DHT22;38223;50.940;4.034;2023-06-14T08:26:33;24.00;70.90
52267;DHT22;38223;50.940;4.034;2023-06-14T08:29:06;23.80;71.10
52267;DHT22;38223;50.940;4.034;2023-06-14T08:31:37;23.90;70.30
52267;DHT22;38223;50.940;4.034;2023-06-14T08:34:10;24.30;69.10
52267;DHT22;38223;50.940;4.034;2023-06-14T08:36:43;25.00;71.90
52267;DHT22;38223;50.940;4.034;2023-06-14T08:42:01;24.60;69.30
52267;DHT22;38223;50.940;4.034;2023-06-14T08:44:36;24.40;70.10
52267;DHT22;38223;50.940;4.034;2023-06-14T08:47:14;24.30;68.60
52267;DHT22;38223;50.940;4.034;2023-06-14T08:49:46;24.30;68.40
52267;DHT22;38223;50.940;4.034;2023-06-14T08:52:20;24.30;68.90
52267;DHT22;38223;50.940;4.034;2023-06-14T08:54:58;24.40;68.80
52267;DHT22;38223;50.940;4.034;2023-06-14T08:57:33;24.50;68.20
52267;DHT22;38223;50.940;4.034;2023-06-14T09:00:08;24.60;68.60
52267;DHT22;38223;50.940;4.034;2023-06-14T09:02:42;24.70;69.70
52267;DHT22;38223;50.940;4.034;2023-06-14T09:05:14;24.80;68.50
52267;DHT22;38223;50.940;4.034;2023-06-14T09:07:48;24.90;67.00
52267;DHT22;38223;50.940;4.034;2023-06-14T09:10:18;25.10;66.40
52267;DHT22;38223;50.940;4.034;2023-06-14T09:12:52;25.10;66.40
52267;DHT22;38223;50.940;4.034;2023-06-14T09:15:24;25.20;66.40
52267;DHT22;38223;50.940;4.034;2023-06-14T09:17:56;25.20;66.70
52267;DHT22;38223;50.940;4.034;2023-06-14T09:20:28;25.40;66.10
52267;DHT22;38223;50.940;4.034;2023-06-14T09:23:01;25.40;65.60
52267;DHT22;38223;50.940;4.034;2023-06-14T09:25:45;25.20;64.20
52267;DHT22;38223;50.940;4.034;2023-06-14T09:28:14;25.10;65.00
52267;DHT22;38223;50.940;4.034;2023-06-14T09:30:46;25.20;66.40
52267;DHT22;38223;50.940;4.034;2023-06-14T09:33:21;25.40;66.40
52267;DHT22;38223;50.940;4.034;2023-06-14T09:35:56;25.30;65.90
52267;DHT22;38223;50.940;4.034;2023-06-14T09:38:28;25.30;62.80
52267;DHT22;38223;50.940;4.034;2023-06-14T09:41:04;25.30;63.30
52267;DHT22;38223;50.940;4.034;2023-06-14T09:43:34;25.30;63.10
52267;DHT22;38223;50.940;4.034;2023-06-14T09:46:10;25.40;63.70
52267;DHT22;38223;50.940;4.034;2023-06-14T09:48:40;25.50;64.10
52267;DHT22;38223;50.940;4.034;2023-06-14T09:51:16;25.60;63.50
52267;DHT22;38223;50.940;4.034;2023-06-14T09:53:54;25.70;62.60
52267;DHT22;38223;50.940;4.034;2023-06-14T09:56:27;25.70;62.70
52267;DHT22;38223;50.940;4.034;2023-06-14T09:59:00;25.60;62.60
52267;DHT22;38223;50.940;4.034;2023-06-14T10:01:35;25.80;61.90
52267;DHT22;38223;50.940;4.034;2023-06-14T10:04:09;25.80;62.70
52267;DHT22;38223;50.940;4.034;2023-06-14T10:06:45;25.80;62.40
52267;DHT22;38223;50.940;4.034;2023-06-14T10:09:17;25.90;61.20
52267;DHT22;38223;50.940;4.034;2023-06-14T10:11:54;25.90;61.40
52267;DHT22;38223;50.940;4.034;2023-06-14T10:14:24;25.80;61.60
52267;DHT22;38223;50.940;4.034;2023-06-14T10:17:12;25.70;63.50
52267;DHT22;38223;50.940;4.034;2023-06-14T10:19:50;25.60;62.40
52267;DHT22;38223;50.940;4.034;2023-06-14T10:22:35;25.50;62.40
52267;DHT22;38223;50.940;4.034;2023-06-14T10:25:10;25.50;62.20
52267;DHT22;38223;50.940;4.034;2023-06-14T10:27:41;25.50;61.90
52267;DHT22;38223;50.940;4.034;2023-06-14T10:30:12;25.40;63.80
52267;DHT22;38223;50.940;4.034;2023-06-14T10:33:02;25.50;64.40
52267;DHT22;38223;50.940;4.034;2023-06-14T10:35:26;25.60;63.70
52267;DHT22;38223;50.940;4.034;2023-06-14T10:37:54;25.60;64.60
52267;DHT22;38223;50.940;4.034;2023-06-14T10:40:31;25.80;64.20
52267;DHT22;38223;50.940;4.034;2023-06-14T10:43:20;25.80;63.20
52267;DHT22;38223;50.940;4.034;2023-06-14T10:45:35;25.80;62.30
52267;DHT22;38223;50.940;4.034;2023-06-14T10:48:14;25.80;61.00
52267;DHT22;38223;50.940;4.034;2023-06-14T10:50:42;25.90;60.80
52267;DHT22;38223;50.940;4.034;2023-06-14T10:53:21;25.80;60.10
52267;DHT22;38223;50.940;4.034;2023-06-14T10:55:57;25.90;61.70
52267;DHT22;38223;50.940;4.034;2023-06-14T10:58:29;25.90;60.50
52267;DHT22;38223;50.940;4.034;2023-06-14T11:01:02;25.90;60.20
52267;DHT22;38223;50.940;4.034;2023-06-14T11:03:54;25.80;60.70
52267;DHT22;38223;50.940;4.034;2023-06-14T11:06:29;25.90;60.70
52267;DHT22;38223;50.940;4.034;2023-06-14T11:12:08;26.10;58.80
52267;DHT22;38223;50.940;4.034;2023-06-14T11:14:40;26.20;59.00
52267;DHT22;38223;50.940;4.034;2023-06-14T11:17:17;26.20;59.40
52267;DHT22;38223;50.940;4.034;2023-06-14T11:19:47;26.30;57.50
52267;DHT22;38223;50.940;4.034;2023-06-14T11:22:18;26.30;56.80
52267;DHT22;38223;50.940;4.034;2023-06-14T11:24:47;26.50;57.60
52267;DHT22;38223;50.940;4.034;2023-06-14T11:27:17;26.70;57.50
52267;DHT22;38223;50.940;4.034;2023-06-14T11:29:52;26.70;57.40
52267;DHT22;38223;50.940;4.034;2023-06-14T11:32:23;26.80;56.70
52267;DHT22;38223;50.940;4.034;2023-06-14T11:34:54;26.80;56.60
52267;DHT22;38223;50.940;4.034;2023-06-14T11:37:22;26.60;56.80
52267;DHT22;38223;50.940;4.034;2023-06-14T11:39:53;26.50;56.50
52267;DHT22;38223;50.940;4.034;2023-06-14T11:42:26;26.50;57.10
52267;DHT22;38223;50.940;4.034;2023-06-14T11:44:57;26.50;56.60
52267;DHT22;38223;50.940;4.034;2023-06-14T11:47:34;26.60;56.50
52267;DHT22;38223;50.940;4.034;2023-06-14T11:50:08;26.60;55.20
52267;DHT22;38223;50.940;4.034;2023-06-14T11:52:40;26.40;55.70
52267;DHT22;38223;50.940;4.034;2023-06-14T11:55:16;26.70;55.40
52267;DHT22;38223;50.940;4.034;2023-06-14T11:57:48;26.80;56.10
52267;DHT22;38223;50.940;4.034;2023-06-14T12:00:25;26.80;55.90
52267;DHT22;38223;50.940;4.034;2023-06-14T12:02:59;26.80;56.00
52267;DHT22;38223;50.940;4.034;2023-06-14T12:05:29;26.90;55.60
52267;DHT22;38223;50.940;4.034;2023-06-14T12:08:02;26.90;55.30
52267;DHT22;38223;50.940;4.034;2023-06-14T12:10:41;26.90;54.30
52267;DHT22;38223;50.940;4.034;2023-06-14T12:13:11;26.90;54.30
52267;DHT22;38223;50.940;4.034;2023-06-14T12:15:43;26.90;55.20
52267;DHT22;38223;50.940;4.034;2023-06-14T12:18:14;27.00;54.70
52267;DHT22;38223;50.940;4.034;2023-06-14T12:20:47;26.90;54.20
52267;DHT22;38223;50.940;4.034;2023-06-14T12:23:44;26.90;53.70
52267;DHT22;38223;50.940;4.034;2023-06-14T12:26:18;26.80;53.70
52267;DHT22;38223;50.940;4.034;2023-06-14T12:28:51;26.70;54.10
52267;DHT22;38223;50.940;4.034;2023-06-14T12:31:23;26.80;53.30
52267;DHT22;38223;50.940;4.034;2023-06-14T12:33:52;26.90;52.90
52267;DHT22;38223;50.940;4.034;2023-06-14T12:36:26;27.00;52.60
52267;DHT22;38223;50.940;4.034;2023-06-14T12:38:55;27.10;52.70
52267;DHT22;38223;50.940;4.034;2023-06-14T12:41:31;27.10;53.30
52267;DHT22;38223;50.940;4.034;2023-06-14T12:44:00;26.90;53.10
52267;DHT22;38223;50.940;4.034;2023-06-14T12:46:33;26.80;53.10
52267;DHT22;38223;50.940;4.034;2023-06-14T12:49:05;26.80;52.90
52267;DHT22;38223;50.940;4.034;2023-06-14T12:51:34;26.90;53.90
52267;DHT22;38223;50.940;4.034;2023-06-14T12:54:04;26.80;53.70
52267;DHT22;38223;50.940;4.034;2023-06-14T12:56:54;26.80;54.30
52267;DHT22;38223;50.940;4.034;2023-06-14T12:59:24;27.00;54.40
52267;DHT22;38223;50.940;4.034;2023-06-14T13:01:53;27.10;54.20
52267;DHT22;38223;50.940;4.034;2023-06-14T13:04:23;27.10;53.80
52267;DHT22;38223;50.940;4.034;2023-06-14T13:06:53;27.20;53.90
52267;DHT22;38223;50.940;4.034;2023-06-14T13:09:22;27.10;53.40
52267;DHT22;38223;50.940;4.034;2023-06-14T13:11:52;27.30;53.60
52267;DHT22;38223;50.940;4.034;2023-06-14T13:14:21;27.40;53.20
52267;DHT22;38223;50.940;4.034;2023-06-14T13:16:55;27.50;53.20
52267;DHT22;38223;50.940;4.034;2023-06-14T13:19:24;27.60;52.90
52267;DHT22;38223;50.940;4.034;2023-06-14T13:21:52;27.60;53.00
52267;DHT22;38223;50.940;4.034;2023-06-14T13:24:19;27.70;52.70
52267;DHT22;38223;50.940;4.034;2023-06-14T13:26:48;27.70;51.90
52267;DHT22;38223;50.940;4.034;2023-06-14T13:29:20;27.50;51.80
52267;DHT22;38223;50.940;4.034;2023-06-14T13:31:55;27.40;54.10
52267;DHT22;38223;50.940;4.034;2023-06-14T13:34:29;27.50;54.10
52267;DHT22;38223;50.940;4.034;2023-06-14T13:36:58;27.40;54.40
52267;DHT22;38223;50.940;4.034;2023-06-14T13:39:33;27.40;52.90
52267;DHT22;38223;50.940;4.034;2023-06-14T13:42:03;27.30;52.80
52267;DHT22;38223;50.940;4.034;2023-06-14T13:44:34;27.40;52.50
52267;DHT22;38223;50.940;4.034;2023-06-14T13:47:04;27.50;52.70
52267;DHT22;38223;50.940;4.034;2023-06-14T13:49:36;27.60;52.00
52267;DHT22;38223;50.940;4.034;2023-06-14T13:52:12;27.40;52.50
52267;DHT22;38223;50.940;4.034;2023-06-14T13:54:41;27.40;52.60
52267;DHT22;38223;50.940;4.034;2023-06-14T13:57:15;27.30;52.30
52267;DHT22;38223;50.940;4.034;2023-06-14T13:59:50;27.40;52.30
52267;DHT22;38223;50.940;4.034;2023-06-14T14:02:19;27.50;51.90
52267;DHT22;38223;50.940;4.034;2023-06-14T14:04:52;27.80;52.20
52267;DHT22;38223;50.940;4.034;2023-06-14T14:07:20;27.70;52.50
52267;DHT22;38223;50.940;4.034;2023-06-14T14:09:48;27.60;52.10
52267;DHT22;38223;50.940;4.034;2023-06-14T14:12:24;27.60;52.60
52267;DHT22;38223;50.940;4.034;2023-06-14T14:14:56;27.50;52.90
52267;DHT22;38223;50.940;4.034;2023-06-14T14:17:29;27.40;53.50
52267;DHT22;38223;50.940;4.034;2023-06-14T14:20:02;27.40;52.70
52267;DHT22;38223;50.940;4.034;2023-06-14T14:22:35;27.50;52.50
52267;DHT22;38223;50.940;4.034;2023-06-14T14:25:08;27.70;52.40
52267;DHT22;38223;50.940;4.034;2023-06-14T14:27:41;27.80;52.20
52267;DHT22;38223;50.940;4.034;2023-06-14T14:30:12;27.70;52.10
52267;DHT22;38223;50.940;4.034;2023-06-14T14:32:49;27.60;52.10
52267;DHT22;38223;50.940;4.034;2023-06-14T14:35:19;27.80;52.00
52267;DHT22;38223;50.940;4.034;2023-06-14T14:37:54;27.90;51.90
52267;DHT22;38223;50.940;4.034;2023-06-14T14:40:23;28.10;50.70
52267;DHT22;38223;50.940;4.034;2023-06-14T14:42:54;27.90;50.80
52267;DHT22;38223;50.940;4.034;2023-06-14T14:45:24;27.80;50.50
52267;DHT22;38223;50.940;4.034;2023-06-14T14:47:55;28.00;50.70
52267;DHT22;38223;50.940;4.034;2023-06-14T14:50:29;28.10;50.40
52267;DHT22;38223;50.940;4.034;2023-06-14T14:53:02;27.80;50.20
52267;DHT22;38223;50.940;4.034;2023-06-14T14:55:30;27.70;50.80
52267;DHT22;38223;50.940;4.034;2023-06-14T14:58:01;27.60;50.90
52267;DHT22;38223;50.940;4.034;2023-06-14T15:00:31;27.70;50.50
52267;DHT22;38223;50.940;4.034;2023-06-14T15:03:06;27.70;50.20
52267;DHT22;38223;50.940;4.034;2023-06-14T15:05:52;27.80;50.50
52267;DHT22;38223;50.940;4.034;2023-06-14T15:08:22;28.10;50.60
52267;DHT22;38223;50.940;4.034;2023-06-14T15:10:55;28.00;49.60
52267;DHT22;38223;50.940;4.034;2023-06-14T15:13:28;27.90;49.80
52267;DHT22;38223;50.940;4.034;2023-06-14T15:15:58;28.00;49.70
52267;DHT22;38223;50.940;4.034;2023-06-14T15:18:34;28.00;49.80
52267;DHT22;38223;50.940;4.034;2023-06-14T15:21:06;27.70;49.20
52267;DHT22;38223;50.940;4.034;2023-06-14T15:23:36;27.60;49.10
52267;DHT22;38223;50.940;4.034;2023-06-14T15:26:06;27.60;49.30
52267;DHT22;38223;50.940;4.034;2023-06-14T15:28:39;27.50;49.20
52267;DHT22;38223;50.940;4.034;2023-06-14T15:31:11;27.30;49.60
52267;DHT22;38223;50.940;4.034;2023-06-14T15:33:45;27.40;49.40
52267;DHT22;38223;50.940;4.034;2023-06-14T15:36:13;27.30;49.30
52267;DHT22;38223;50.940;4.034;2023-06-14T15:38:42;27.30;49.70
52267;DHT22;38223;50.940;4.034;2023-06-14T15:41:13;27.40;49.20
52267;DHT22;38223;50.940;4.034;2023-06-14T15:43:45;27.20;49.30
52267;DHT22;38223;50.940;4.034;2023-06-14T15:46:13;27.40;49.40
52267;DHT22;38223;50.940;4.034;2023-06-14T15:48:43;27.30;49.40
52267;DHT22;38223;50.940;4.034;2023-06-14T15:51:15;27.30;49.60
52267;DHT22;38223;50.940;4.034;2023-06-14T15:53:47;27.20;49.90
52267;DHT22;38223;50.940;4.034;2023-06-14T15:56:20;27.20;50.00
52267;DHT22;38223;50.940;4.034;2023-06-14T15:58:51;27.20;49.80
52267;DHT22;38223;50.940;4.034;2023-06-14T16:01:24;27.20;49.80
52267;DHT22;38223;50.940;4.034;2023-06-14T16:04:01;27.30;49.90
52267;DHT22;38223;50.940;4.034;2023-06-14T16:06:34;27.40;49.40
52267;DHT22;38223;50.940;4.034;2023-06-14T16:09:03;27.30;49.20
52267;DHT22;38223;50.940;4.034;2023-06-14T16:11:38;27.10;49.40
52267;DHT22;38223;50.940;4.034;2023-06-14T16:14:12;27.10;49.70
52267;DHT22;38223;50.940;4.034;2023-06-14T16:16:46;26.90;50.00